South Washington, Vermont
Current Conditions -  °F | °C
As of 3:51 AM on Saturday 29 Nov 2014 (Local Time) from KMPV Reporting Station
Overcast Overcast  
Wind Chill: -12°   Ceiling: 3400
Heat Index: -12°   Visibility: 10mi
Dew Point: -13°   Wind: 3mph
Humidity: 92%   Direction: 200°SSW
Pressure: 30.21"   Gusts: NA
Location:  44.0671°N, 72.4216°W
Report Text: KMPV 290851Z AUTO 20003KT 10SM OVC034 M12/M13 A3021 RMK AO2 SLP253 60000 T11221133 51005 $
Loading
Personal Weather Stations






























Interactive Weather Map New forecast layout! Learn more

10-Day Weather Forecast

Advertisements
Track Severe Weather on mobile